Time;durP1;ratioP1;P1;durP2;ratioP2;P2;SDS_P1;SDS_P2;PMS_P1;PMS_P2;Temp;Humidity;BMP_temperature;BMP_pressure;BME280_temperature;BME280_humidity;BME280_pressure;Samples;Min_cycle;Max_cycle;Signal;HPM_P1;HPM_P2
2021/07/11 00:00:10;;;;;;;;;;;15.30;88.50;;;;;;5019479;28;19929;-63
2021/07/11 00:02:36;;;;;;;;;;;15.20;88.50;;;;;;5015896;28;19917;-64
2021/07/11 00:05:04;;;;;;;;;;;15.30;88.70;;;;;;4996153;28;20300;-63
2021/07/11 00:07:30;;;;;;;;;;;15.20;88.70;;;;;;5016196;28;19921;-64
2021/07/11 00:09:56;;;;;;;;;;;15.20;88.80;;;;;;5014710;28;19924;-64
2021/07/11 00:12:22;;;;;;;;;;;15.20;88.90;;;;;;5017147;28;19921;-64
2021/07/11 00:14:47;;;;;;;;;;;15.10;89.00;;;;;;5008189;28;19917;-64
2021/07/11 00:17:13;;;;;;;;;;;15.20;89.20;;;;;;5015043;28;19922;-64
2021/07/11 00:19:38;;;;;;;;;;;15.10;89.20;;;;;;5002438;28;20012;-64
2021/07/11 00:22:04;;;;;;;;;;;15.10;89.30;;;;;;5013013;28;20452;-64
2021/07/11 00:24:30;;;;;;;;;;;15.10;89.40;;;;;;5016837;28;20427;-64
2021/07/11 00:26:55;;;;;;;;;;;15.00;89.50;;;;;;5016752;28;20329;-64
2021/07/11 00:29:21;;;;;;;;;;;15.00;89.60;;;;;;5011843;28;19918;-63
2021/07/11 00:31:46;;;;;;;;;;;15.00;89.70;;;;;;5005124;28;19922;-64
2021/07/11 00:34:13;;;;;;;;;;;15.00;89.90;;;;;;4996634;28;20429;-63
2021/07/11 00:36:39;;;;;;;;;;;15.00;90.00;;;;;;5014057;28;19917;-64
2021/07/11 00:39:05;;;;;;;;;;;15.00;90.00;;;;;;5001237;28;19917;-63
2021/07/11 00:41:36;;;;;;;;;;;14.90;90.00;;;;;;5003527;28;20618;-64
2021/07/11 00:44:01;;;;;;;;;;;14.90;90.00;;;;;;5008266;28;20029;-63
2021/07/11 00:46:29;;;;;;;;;;;14.90;90.10;;;;;;4977604;28;19917;-66
2021/07/11 00:48:55;;;;;;;;;;;14.90;90.10;;;;;;4994581;28;19918;-66
2021/07/11 00:51:24;;;;;;;;;;;14.90;90.20;;;;;;4985565;28;20285;-66
2021/07/11 00:53:53;;;;;;;;;;;14.80;90.20;;;;;;5011541;28;19968;-66
2021/07/11 00:56:21;;;;;;;;;;;14.80;90.30;;;;;;4995878;28;19957;-66
2021/07/11 00:58:47;;;;;;;;;;;14.80;90.30;;;;;;5013234;28;19925;-67
2021/07/11 01:01:17;;;;;;;;;;;14.80;90.30;;;;;;5013408;28;19975;-66
2021/07/11 01:03:47;;;;;;;;;;;14.70;90.30;;;;;;4995972;28;19961;-66
2021/07/11 01:06:14;;;;;;;;;;;14.70;90.40;;;;;;5012807;28;19971;-65
2021/07/11 01:09:02;;;;;;;;;;;14.70;90.40;;;;;;5012337;28;19917;-64
2021/07/11 01:11:32;;;;;;;;;;;14.70;90.50;;;;;;4976818;28;19922;-64
2021/07/11 01:14:00;;;;;;;;;;;14.70;90.50;;;;;;4995382;28;20332;-64
2021/07/11 01:16:28;;;;;;;;;;;14.70;90.50;;;;;;5016424;28;19913;-63
2021/07/11 01:19:08;;;;;;;;;;;14.70;90.50;;;;;;5014680;28;19917;-64
2021/07/11 01:21:37;;;;;;;;;;;14.80;90.60;;;;;;5015091;28;20363;-64
2021/07/11 01:24:10;;;;;;;;;;;14.60;90.60;;;;;;5014773;28;19917;-64
2021/07/11 01:26:37;;;;;;;;;;;14.60;90.70;;;;;;4993246;28;19922;-64
2021/07/11 01:29:04;;;;;;;;;;;14.60;90.70;;;;;;4975245;28;19917;-64
2021/07/11 01:31:31;;;;;;;;;;;14.60;90.80;;;;;;4976128;28;20007;-64
2021/07/11 01:33:59;;;;;;;;;;;14.70;90.90;;;;;;4992813;28;20004;-63
2021/07/11 01:36:26;;;;;;;;;;;14.70;90.90;;;;;;4975877;28;19918;-64
2021/07/11 01:38:53;;;;;;;;;;;14.70;90.90;;;;;;4965116;28;19914;-64
2021/07/11 01:41:25;;;;;;;;;;;14.70;91.00;;;;;;5014299;28;20416;-64
2021/07/11 01:43:53;;;;;;;;;;;14.70;90.90;;;;;;5014632;28;19921;-64
2021/07/11 01:46:19;;;;;;;;;;;14.70;90.90;;;;;;5014633;28;19920;-64
2021/07/11 01:48:46;;;;;;;;;;;14.70;90.90;;;;;;5014188;28;20296;-64
2021/07/11 01:51:11;;;;;;;;;;;14.70;91.20;;;;;;5013853;28;19925;-64
2021/07/11 01:53:38;;;;;;;;;;;14.70;91.00;;;;;;5014118;28;19936;-64
2021/07/11 01:56:07;;;;;;;;;;;14.60;91.00;;;;;;5030252;28;20393;-64
2021/07/11 01:58:32;;;;;;;;;;;14.60;91.00;;;;;;5031550;28;20377;-64
2021/07/11 02:01:01;;;;;;;;;;;14.60;91.10;;;;;;5013750;28;20453;-64
2021/07/11 02:03:28;;;;;;;;;;;14.50;91.10;;;;;;5012585;28;19974;-65
2021/07/11 02:06:07;;;;;;;;;;;14.60;91.20;;;;;;5013993;28;20440;-64
2021/07/11 02:08:37;;;;;;;;;;;14.60;91.20;;;;;;5013918;28;19918;-64
2021/07/11 02:11:04;;;;;;;;;;;14.60;91.20;;;;;;5031610;28;19917;-64
2021/07/11 02:13:42;;;;;;;;;;;14.60;91.20;;;;;;5012536;28;19968;-64
2021/07/11 02:16:12;;;;;;;;;;;14.50;91.30;;;;;;5031362;28;20318;-63
2021/07/11 02:18:40;;;;;;;;;;;14.60;91.40;;;;;;5013980;28;19925;-64
2021/07/11 02:21:11;;;;;;;;;;;14.60;91.50;;;;;;5013568;28;19962;-64
2021/07/11 02:23:39;;;;;;;;;;;14.70;91.60;;;;;;5014026;28;19917;-66
2021/07/11 02:26:08;;;;;;;;;;;14.70;91.60;;;;;;5013946;28;19921;-64
2021/07/11 02:28:38;;;;;;;;;;;14.70;91.60;;;;;;4997469;28;19917;-64
2021/07/11 02:31:10;;;;;;;;;;;14.80;91.60;;;;;;5013011;28;19917;-64
2021/07/11 02:33:36;;;;;;;;;;;14.90;91.60;;;;;;5011479;28;19917;-64
2021/07/11 02:36:04;;;;;;;;;;;14.90;91.60;;;;;;5011928;28;19925;-64
2021/07/11 02:38:43;;;;;;;;;;;14.90;91.90;;;;;;4994042;28;19917;-64
2021/07/11 02:41:10;;;;;;;;;;;15.00;91.70;;;;;;4993827;28;19918;-64
2021/07/11 02:43:36;;;;;;;;;;;15.10;91.70;;;;;;4994115;28;19921;-63
2021/07/11 02:46:03;;;;;;;;;;;15.10;91.70;;;;;;4994793;28;20003;-64
2021/07/11 02:48:32;;;;;;;;;;;15.10;91.70;;;;;;4993856;28;19922;-63
2021/07/11 02:50:58;;;;;;;;;;;15.20;91.70;;;;;;5011597;28;19924;-64
2021/07/11 02:53:24;;;;;;;;;;;15.20;91.70;;;;;;4977690;28;20433;-64
2021/07/11 02:55:58;;;;;;;;;;;15.20;91.60;;;;;;5012144;28;19917;-64
2021/07/11 02:58:28;;;;;;;;;;;15.20;91.60;;;;;;5013042;28;20274;-64
2021/07/11 03:00:54;;;;;;;;;;;15.20;91.60;;;;;;5013364;28;19956;-64
2021/07/11 03:03:21;;;;;;;;;;;15.20;91.60;;;;;;5033730;28;19950;-63
2021/07/11 03:05:54;;;;;;;;;;;15.30;91.70;;;;;;5017693;28;19921;-64
2021/07/11 03:08:20;;;;;;;;;;;15.30;91.70;;;;;;5016521;28;19921;-64
2021/07/11 03:10:48;;;;;;;;;;;15.30;91.70;;;;;;4997432;28;19922;-64
2021/07/11 03:13:16;;;;;;;;;;;15.30;91.60;;;;;;4997856;28;20009;-64
2021/07/11 03:15:45;;;;;;;;;;;15.30;91.60;;;;;;4997360;28;19957;-64
2021/07/11 03:18:16;;;;;;;;;;;15.40;91.60;;;;;;5015146;28;19925;-64
2021/07/11 03:20:46;;;;;;;;;;;15.40;91.60;;;;;;4997208;28;19924;-62
2021/07/11 03:23:12;;;;;;;;;;;15.30;91.60;;;;;;4997651;28;20386;-64
2021/07/11 03:25:39;;;;;;;;;;;15.40;91.60;;;;;;5000988;28;19917;-64
2021/07/11 03:28:06;;;;;;;;;;;15.40;91.70;;;;;;5033955;28;19925;-64
2021/07/11 03:30:39;;;;;;;;;;;15.40;91.70;;;;;;5017391;28;19926;-64
2021/07/11 03:33:06;;;;;;;;;;;15.50;91.70;;;;;;5034425;28;19983;-64
2021/07/11 03:35:37;;;;;;;;;;;15.50;91.70;;;;;;5017055;28;19924;-64
2021/07/11 03:38:08;;;;;;;;;;;15.50;91.60;;;;;;5016934;28;20288;-64
2021/07/11 03:40:36;;;;;;;;;;;15.60;91.60;;;;;;5016568;28;19924;-64
2021/07/11 03:43:04;;;;;;;;;;;15.60;91.60;;;;;;5015370;28;20452;-64
2021/07/11 03:45:32;;;;;;;;;;;15.60;91.70;;;;;;5016356;28;19925;-64
2021/07/11 03:48:01;;;;;;;;;;;15.70;91.70;;;;;;5034313;28;19944;-64
2021/07/11 03:50:27;;;;;;;;;;;15.70;91.60;;;;;;5034037;28;19917;-63
2021/07/11 03:53:04;;;;;;;;;;;15.70;91.60;;;;;;5016828;28;19939;-64
2021/07/11 03:55:31;;;;;;;;;;;15.80;91.60;;;;;;5016447;28;20274;-64
2021/07/11 03:57:58;;;;;;;;;;;15.90;91.60;;;;;;5034039;28;20285;-65
2021/07/11 04:00:23;;;;;;;;;;;15.90;91.60;;;;;;5014812;28;19949;-64
2021/07/11 04:02:50;;;;;;;;;;;16.00;91.50;;;;;;5016279;28;19917;-64
2021/07/11 04:05:17;;;;;;;;;;;16.00;91.40;;;;;;5034343;28;19976;-64
2021/07/11 04:07:44;;;;;;;;;;;16.10;91.40;;;;;;5015925;28;19925;-64
2021/07/11 04:10:10;;;;;;;;;;;16.10;91.40;;;;;;5034212;28;19917;-64
2021/07/11 04:12:36;;;;;;;;;;;16.10;91.40;;;;;;5034094;28;20389;-64
2021/07/11 04:15:02;;;;;;;;;;;16.20;91.50;;;;;;5015351;28;19917;-64
2021/07/11 04:17:29;;;;;;;;;;;16.30;91.50;;;;;;5022334;28;19963;-64
2021/07/11 04:19:55;;;;;;;;;;;16.30;91.50;;;;;;5014198;28;19917;-64
2021/07/11 04:22:21;;;;;;;;;;;16.40;91.40;;;;;;5013695;28;20329;-65
2021/07/11 04:24:48;;;;;;;;;;;16.50;91.40;;;;;;5014115;28;19917;-67
2021/07/11 04:27:14;;;;;;;;;;;16.60;91.30;;;;;;5013100;28;20008;-65
2021/07/11 04:29:40;;;;;;;;;;;16.60;91.20;;;;;;5014093;28;19917;-65
2021/07/11 04:32:08;;;;;;;;;;;16.70;91.20;;;;;;4996532;28;19921;-65
2021/07/11 04:34:34;;;;;;;;;;;16.80;91.30;;;;;;4996995;28;20292;-66
2021/07/11 04:37:01;;;;;;;;;;;16.90;91.20;;;;;;5013554;28;19918;-65
2021/07/11 04:39:27;;;;;;;;;;;17.00;91.10;;;;;;5013639;28;19949;-65
2021/07/11 04:41:53;;;;;;;;;;;17.10;91.20;;;;;;5013388;28;19973;-65
2021/07/11 04:44:19;;;;;;;;;;;17.20;91.00;;;;;;5013723;28;19918;-65
2021/07/11 04:46:45;;;;;;;;;;;17.30;91.00;;;;;;5012941;28;20348;-65
2021/07/11 04:49:11;;;;;;;;;;;17.30;91.00;;;;;;5013511;28;19972;-65
2021/07/11 04:51:36;;;;;;;;;;;17.40;90.90;;;;;;5014653;28;20274;-66
2021/07/11 04:54:03;;;;;;;;;;;17.50;90.90;;;;;;4995507;28;19928;-65
2021/07/11 04:56:29;;;;;;;;;;;17.60;90.70;;;;;;5013326;28;19925;-65
2021/07/11 04:58:54;;;;;;;;;;;17.60;90.60;;;;;;5015165;28;19925;-65
2021/07/11 05:01:20;;;;;;;;;;;17.70;90.60;;;;;;5069396;23;20019;-64
2021/07/11 05:03:45;;;;;;;;;;;17.80;90.50;;;;;;5052497;28;20008;-64
2021/07/11 05:06:11;;;;;;;;;;;17.80;90.50;;;;;;5052985;28;20004;-65
2021/07/11 05:08:36;;;;;;;;;;;17.90;90.40;;;;;;5053180;28;19924;-64
2021/07/11 05:11:02;;;;;;;;;;;18.00;90.30;;;;;;5053039;28;19921;-64
2021/07/11 05:13:27;;;;;;;;;;;18.00;90.20;;;;;;5052884;28;19916;-64
2021/07/11 05:15:53;;;;;;;;;;;18.10;90.00;;;;;;5053249;28;19955;-63
2021/07/11 05:18:19;;;;;;;;;;;18.10;90.10;;;;;;5052310;28;20373;-62
2021/07/11 05:20:44;;;;;;;;;;;18.20;90.00;;;;;;5052861;28;20301;-68
2021/07/11 05:23:10;;;;;;;;;;;18.30;90.00;;;;;;5052996;28;20343;-64
2021/07/11 05:25:36;;;;;;;;;;;18.30;89.70;;;;;;5063985;28;19916;-66
2021/07/11 05:28:02;;;;;;;;;;;18.40;89.80;;;;;;5072334;28;19920;-64
2021/07/11 05:30:28;;;;;;;;;;;18.50;89.60;;;;;;5071463;28;19916;-63
2021/07/11 05:32:54;;;;;;;;;;;18.60;89.60;;;;;;5072313;28;20351;-64
2021/07/11 05:35:19;;;;;;;;;;;18.70;89.20;;;;;;5072670;28;20434;-63
2021/07/11 05:37:45;;;;;;;;;;;18.80;88.90;;;;;;5070797;28;20433;-66
2021/07/11 05:40:11;;;;;;;;;;;18.90;88.90;;;;;;5072375;28;20008;-65
2021/07/11 05:42:37;;;;;;;;;;;18.90;88.80;;;;;;5058457;28;19921;-65
2021/07/11 05:45:03;;;;;;;;;;;19.00;88.60;;;;;;5052150;28;20304;-64
2021/07/11 05:47:29;;;;;;;;;;;19.10;88.60;;;;;;5033965;28;20284;-64
2021/07/11 05:49:54;;;;;;;;;;;19.30;88.50;;;;;;5052381;28;19916;-63
2021/07/11 05:52:20;;;;;;;;;;;19.40;88.40;;;;;;5050788;28;20303;-65
2021/07/11 05:54:45;;;;;;;;;;;19.50;88.10;;;;;;5052159;28;20333;-65
2021/07/11 05:57:11;;;;;;;;;;;19.60;87.70;;;;;;5050898;28;19920;-71
2021/07/11 05:59:36;;;;;;;;;;;19.70;87.50;;;;;;5034977;28;19917;-70
2021/07/11 06:02:02;;;;;;;;;;;19.90;87.60;;;;;;5052205;28;19943;-71
2021/07/11 06:04:28;;;;;;;;;;;20.00;87.20;;;;;;5051728;28;19917;-70
2021/07/11 06:06:53;;;;;;;;;;;20.10;86.70;;;;;;5050285;28;19927;-71
2021/07/11 06:09:19;;;;;;;;;;;20.20;86.30;;;;;;5051837;28;19921;-71
2021/07/11 06:11:44;;;;;;;;;;;20.20;86.10;;;;;;5050331;28;19917;-71
2021/07/11 06:14:10;;;;;;;;;;;20.30;86.00;;;;;;5034074;28;19979;-71
2021/07/11 06:16:35;;;;;;;;;;;20.30;85.70;;;;;;5034782;28;19917;-71
2021/07/11 06:19:01;;;;;;;;;;;20.40;85.50;;;;;;5033487;28;19916;-70
2021/07/11 06:21:26;;;;;;;;;;;20.50;85.30;;;;;;5051756;28;19917;-69
2021/07/11 06:23:52;;;;;;;;;;;20.60;85.50;;;;;;5050331;28;20438;-70
2021/07/11 06:26:18;;;;;;;;;;;20.70;84.80;;;;;;5051148;28;20335;-71
2021/07/11 06:28:43;;;;;;;;;;;20.80;84.70;;;;;;5050101;28;20335;-72
2021/07/11 06:31:09;;;;;;;;;;;21.00;85.10;;;;;;5049969;28;19948;-71
2021/07/11 06:33:34;;;;;;;;;;;21.30;85.10;;;;;;5034611;28;19917;-69
2021/07/11 06:36:00;;;;;;;;;;;21.90;87.10;;;;;;5051763;28;19917;-71
2021/07/11 06:38:25;;;;;;;;;;;22.60;86.70;;;;;;5050758;28;20258;-70
2021/07/11 06:40:51;;;;;;;;;;;23.00;83.70;;;;;;5050240;28;19944;-70
2021/07/11 06:43:16;;;;;;;;;;;23.10;82.50;;;;;;5051670;28;19988;-71
2021/07/11 06:45:42;;;;;;;;;;;23.40;82.30;;;;;;5051138;28;19913;-71
2021/07/11 06:48:10;;;;;;;;;;;23.70;81.80;;;;;;5050424;28;22248;-71
2021/07/11 06:50:37;;;;;;;;;;;24.10;81.20;;;;;;5052126;28;20007;-71
2021/07/11 06:53:02;;;;;;;;;;;25.10;83.00;;;;;;5051464;28;20020;-71
2021/07/11 06:55:28;;;;;;;;;;;26.50;81.90;;;;;;5065866;28;20366;-70
2021/07/11 06:57:53;;;;;;;;;;;27.30;77.90;;;;;;5070836;28;19917;-70
2021/07/11 07:00:19;;;;;;;;;;;28.00;75.50;;;;;;5086849;28;20357;-72
2021/07/11 07:02:44;;;;;;;;;;;29.30;75.00;;;;;;5070095;28;19956;-72
2021/07/11 07:05:10;;;;;;;;;;;30.60;72.10;;;;;;5086623;28;19939;-72
2021/07/11 07:07:36;;;;;;;;;;;31.70;68.60;;;;;;5071010;28;20334;-72
2021/07/11 07:10:05;;;;;;;;;;;32.80;65.40;;;;;;5071452;28;19939;-71
2021/07/11 07:12:31;;;;;;;;;;;33.70;62.50;;;;;;5050052;28;20382;-72
2021/07/11 07:14:56;;;;;;;;;;;34.70;59.30;;;;;;5051329;28;20003;-71
2021/07/11 07:17:22;;;;;;;;;;;35.20;55.50;;;;;;5049330;28;20364;-72
2021/07/11 07:19:47;;;;;;;;;;;35.50;52.70;;;;;;5049868;28;19917;-71
2021/07/11 07:22:13;;;;;;;;;;;35.90;51.00;;;;;;5050656;28;19924;-72
2021/07/11 07:24:39;;;;;;;;;;;36.40;49.30;;;;;;5050993;28;19921;-71
2021/07/11 07:27:04;;;;;;;;;;;36.90;48.40;;;;;;5065054;28;20012;-70
2021/07/11 07:29:30;;;;;;;;;;;37.30;46.40;;;;;;5070736;28;19917;-72
2021/07/11 07:31:55;;;;;;;;;;;37.60;44.80;;;;;;5070977;28;19917;-71
2021/07/11 07:34:21;;;;;;;;;;;38.20;44.00;;;;;;5069751;28;19935;-70
2021/07/11 07:36:46;;;;;;;;;;;38.70;43.40;;;;;;5070317;28;20432;-71
2021/07/11 07:39:12;;;;;;;;;;;39.10;41.10;;;;;;5070939;28;20011;-71
2021/07/11 07:41:38;;;;;;;;;;;39.40;39.80;;;;;;5070618;28;20403;-72
2021/07/11 07:44:04;;;;;;;;;;;39.80;39.60;;;;;;5069475;28;19921;-71
2021/07/11 07:46:29;;;;;;;;;;;40.20;38.30;;;;;;5070816;28;19920;-72
2021/07/11 07:48:55;;;;;;;;;;;40.60;37.70;;;;;;5070623;28;19969;-70
2021/07/11 07:51:20;;;;;;;;;;;41.20;37.10;;;;;;5074454;28;19916;-72
2021/07/11 07:53:46;;;;;;;;;;;41.70;36.20;;;;;;5074651;28;19924;-72
2021/07/11 07:56:11;;;;;;;;;;;42.30;35.40;;;;;;5074350;28;19916;-71
2021/07/11 07:58:37;;;;;;;;;;;42.50;34.30;;;;;;5089980;28;19916;-71
2021/07/11 08:01:02;;;;;;;;;;;42.90;33.90;;;;;;5072245;28;20583;-72
2021/07/11 08:03:28;;;;;;;;;;;43.10;32.90;;;;;;5090193;28;19916;-70
2021/07/11 08:05:54;;;;;;;;;;;43.00;31.80;;;;;;5074509;28;20008;-72
2021/07/11 08:08:19;;;;;;;;;;;42.80;32.20;;;;;;5073428;28;19916;-72
2021/07/11 08:10:45;;;;;;;;;;;42.70;31.70;;;;;;5074248;28;19917;-72
2021/07/11 08:13:10;;;;;;;;;;;42.90;31.70;;;;;;5074182;28;19970;-70
2021/07/11 08:15:36;;;;;;;;;;;43.30;31.20;;;;;;5073839;28;20371;-72
2021/07/11 08:18:01;;;;;;;;;;;43.60;30.80;;;;;;5073183;28;19916;-71
2021/07/11 08:20:27;;;;;;;;;;;43.90;30.40;;;;;;5072780;28;19916;-72
2021/07/11 08:22:53;;;;;;;;;;;44.30;30.00;;;;;;5073754;28;19920;-72
2021/07/11 08:25:18;;;;;;;;;;;44.50;29.70;;;;;;5089735;28;19939;-70
2021/07/11 08:27:45;;;;;;;;;;;44.80;29.50;;;;;;5073380;28;19966;-70
2021/07/11 08:30:12;;;;;;;;;;;45.30;29.40;;;;;;5073238;28;19944;-70
2021/07/11 08:32:38;;;;;;;;;;;45.70;28.90;;;;;;5072239;28;20372;-69
2021/07/11 08:35:04;;;;;;;;;;;46.20;28.50;;;;;;5071235;28;19921;-69
2021/07/11 08:37:30;;;;;;;;;;;46.60;28.20;;;;;;5073381;28;19923;-67
2021/07/11 08:39:56;;;;;;;;;;;47.00;28.00;;;;;;5073187;28;19996;-67
2021/07/11 08:42:23;;;;;;;;;;;45.90;27.00;;;;;;5073474;28;19916;-64
2021/07/11 08:44:49;;;;;;;;;;;44.00;27.30;;;;;;5070407;28;19928;-65
2021/07/11 08:47:15;;;;;;;;;;;43.20;28.60;;;;;;5072593;28;20300;-64
2021/07/11 08:49:41;;;;;;;;;;;43.90;29.20;;;;;;5073360;28;19917;-64
2021/07/11 08:52:06;;;;;;;;;;;44.40;28.70;;;;;;5064103;28;19931;-65
2021/07/11 08:54:32;;;;;;;;;;;43.90;28.20;;;;;;5073008;28;19916;-64
2021/07/11 08:56:58;;;;;;;;;;;42.60;28.10;;;;;;5071708;28;19943;-64
2021/07/11 08:59:25;;;;;;;;;;;42.30;29.50;;;;;;5072997;28;19924;-63
2021/07/11 09:01:50;;;;;;;;;;;41.80;29.20;;;;;;5073052;28;19921;-65
2021/07/11 09:04:16;;;;;;;;;;;41.10;29.30;;;;;;5073150;28;20384;-67
2021/07/11 09:06:49;;;;;;;;;;;39.90;29.30;;;;;;5071249;28;19944;-68
2021/07/11 09:09:22;;;;;;;;;;;38.60;30.00;;;;;;5071770;28;20008;-66
2021/07/11 09:11:49;;;;;;;;;;;37.60;31.10;;;;;;5073179;28;19952;-68
2021/07/11 09:14:15;;;;;;;;;;;36.90;32.00;;;;;;5088597;28;19912;-65
2021/07/11 09:16:42;;;;;;;;;;;36.10;32.20;;;;;;5072677;28;19927;-66
2021/07/11 09:19:18;;;;;;;;;;;36.20;34.60;;;;;;5072549;28;19921;-66
2021/07/11 09:21:49;;;;;;;;;;;38.70;36.00;;;;;;5073017;28;19927;-67
2021/07/11 09:24:15;;;;;;;;;;;41.70;33.40;;;;;;5068457;28;20023;-67
2021/07/11 09:26:44;;;;;;;;;;;43.90;32.00;;;;;;5052600;28;20412;-68
2021/07/11 09:29:09;;;;;;;;;;;45.70;30.30;;;;;;5052502;28;19917;-68
2021/07/11 09:31:35;;;;;;;;;;;46.80;28.90;;;;;;5054712;28;19978;-68
2021/07/11 09:34:01;;;;;;;;;;;47.70;28.30;;;;;;5062932;28;19955;-67
2021/07/11 09:36:27;;;;;;;;;;;48.20;27.50;;;;;;5071306;28;19957;-68
2021/07/11 09:38:53;;;;;;;;;;;48.70;27.00;;;;;;5070839;28;19948;-68
2021/07/11 09:41:21;;;;;;;;;;;49.00;26.40;;;;;;5071786;28;20399;-66
2021/07/11 09:43:46;;;;;;;;;;;49.50;26.40;;;;;;5071273;28;20007;-65
2021/07/11 09:46:13;;;;;;;;;;;49.90;26.20;;;;;;5071872;28;20023;-66
2021/07/11 09:48:38;;;;;;;;;;;50.40;25.80;;;;;;5072141;28;19928;-65
2021/07/11 09:51:14;;;;;;;;;;;50.80;25.70;;;;;;5068476;28;20765;-65
2021/07/11 09:53:40;;;;;;;;;;;51.30;25.50;;;;;;5064342;28;20331;-70
2021/07/11 09:56:05;;;;;;;;;;;51.40;25.00;;;;;;5072306;28;19917;-65
2021/07/11 09:58:33;;;;;;;;;;;51.40;24.60;;;;;;5071958;28;19917;-67
2021/07/11 10:00:58;;;;;;;;;;;51.30;24.70;;;;;;5071721;28;19921;-65
2021/07/11 10:03:24;;;;;;;;;;;51.50;24.70;;;;;;5067050;28;20513;-65
2021/07/11 10:05:49;;;;;;;;;;;51.70;24.70;;;;;;5071898;28;19917;-67
2021/07/11 10:08:15;;;;;;;;;;;51.80;24.10;;;;;;5071339;28;19982;-65
2021/07/11 10:10:41;;;;;;;;;;;51.70;24.10;;;;;;5069881;28;19916;-65
2021/07/11 10:13:07;;;;;;;;;;;51.40;23.80;;;;;;5071241;28;20556;-66
2021/07/11 10:15:34;;;;;;;;;;;51.40;23.90;;;;;;5071600;28;19955;-65
2021/07/11 10:18:04;;;;;;;;;;;51.50;24.00;;;;;;5071169;28;19924;-65
2021/07/11 10:20:29;;;;;;;;;;;51.80;23.90;;;;;;5070058;28;19916;-65
2021/07/11 10:22:55;;;;;;;;;;;51.70;23.90;;;;;;5071850;28;19966;-65
2021/07/11 10:25:22;;;;;;;;;;;51.70;24.00;;;;;;5071842;28;19974;-66
2021/07/11 10:27:48;;;;;;;;;;;52.20;24.00;;;;;;5069401;28;20291;-66
2021/07/11 10:30:14;;;;;;;;;;;52.60;23.90;;;;;;5071408;28;19921;-65
2021/07/11 10:32:41;;;;;;;;;;;52.90;23.80;;;;;;5071353;28;19969;-65
2021/07/11 10:35:17;;;;;;;;;;;52.90;23.60;;;;;;5071711;28;19917;-65
2021/07/11 10:37:46;;;;;;;;;;;52.80;23.70;;;;;;5071494;28;20272;-67
2021/07/11 10:40:13;;;;;;;;;;;51.60;23.20;;;;;;5070896;28;20261;-64
2021/07/11 10:42:39;;;;;;;;;;;51.30;23.80;;;;;;5071564;28;19986;-65
2021/07/11 10:45:07;;;;;;;;;;;51.30;23.50;;;;;;5067507;28;19916;-67
2021/07/11 10:47:32;;;;;;;;;;;49.70;22.90;;;;;;5069044;28;19921;-64
2021/07/11 10:49:58;;;;;;;;;;;48.00;23.90;;;;;;5066500;28;19925;-66
2021/07/11 10:52:24;;;;;;;;;;;47.30;24.10;;;;;;5070555;28;19935;-64
2021/07/11 10:54:54;;;;;;;;;;;45.70;24.10;;;;;;5065242;28;19975;-63
2021/07/11 10:57:28;;;;;;;;;;;43.30;25.00;;;;;;5066046;28;20442;-64
2021/07/11 10:59:54;;;;;;;;;;;40.80;26.00;;;;;;5071431;28;19983;-66
2021/07/11 11:02:20;;;;;;;;;;;38.80;27.20;;;;;;5070218;28;20584;-66
2021/07/11 11:04:57;;;;;;;;;;;37.90;29.20;;;;;;5073443;28;19931;-66
2021/07/11 11:07:22;;;;;;;;;;;39.20;30.60;;;;;;5065453;28;19931;-67
2021/07/11 11:09:48;;;;;;;;;;;41.50;30.00;;;;;;5085644;28;19920;-69
2021/07/11 11:12:24;;;;;;;;;;;42.40;28.40;;;;;;5070118;28;19920;-67
2021/07/11 11:14:51;;;;;;;;;;;42.60;28.20;;;;;;5070665;28;19970;-68
2021/07/11 11:17:24;;;;;;;;;;;42.70;27.80;;;;;;5070904;28;19999;-67
2021/07/11 11:19:50;;;;;;;;;;;41.60;27.60;;;;;;5070551;28;20373;-67
2021/07/11 11:22:16;;;;;;;;;;;40.00;27.70;;;;;;5071362;28;19916;-67
2021/07/11 11:24:42;;;;;;;;;;;38.40;28.40;;;;;;5074237;28;20027;-67
2021/07/11 11:27:07;;;;;;;;;;;38.30;30.40;;;;;;5074333;28;19963;-67
2021/07/11 11:29:33;;;;;;;;;;;40.60;31.30;;;;;;5075136;28;19999;-67
2021/07/11 11:32:07;;;;;;;;;;;42.90;29.90;;;;;;5075053;28;19924;-67
2021/07/11 11:34:33;;;;;;;;;;;42.90;28.10;;;;;;5074678;28;19958;-67
2021/07/11 11:36:58;;;;;;;;;;;41.80;27.70;;;;;;5073458;28;19955;-67
2021/07/11 11:39:31;;;;;;;;;;;40.20;27.90;;;;;;5090037;28;19948;-66
2021/07/11 11:41:57;;;;;;;;;;;38.60;28.90;;;;;;5074779;28;19932;-66
2021/07/11 11:44:23;;;;;;;;;;;37.40;29.70;;;;;;5090462;28;19916;-66
2021/07/11 11:46:50;;;;;;;;;;;36.50;30.50;;;;;;5072952;28;19950;-66
2021/07/11 11:49:17;;;;;;;;;;;35.80;31.50;;;;;;5074496;28;20020;-66
2021/07/11 11:51:47;;;;;;;;;;;35.50;32.80;;;;;;5074097;28;20012;-67
2021/07/11 11:54:23;;;;;;;;;;;35.90;34.00;;;;;;5071514;28;20202;-66
2021/07/11 11:56:49;;;;;;;;;;;36.70;33.70;;;;;;5072281;28;19923;-65
2021/07/11 11:59:15;;;;;;;;;;;37.40;33.30;;;;;;5074156;28;20288;-67
2021/07/11 12:01:40;;;;;;;;;;;37.10;32.40;;;;;;5074157;28;20391;-66
2021/07/11 12:04:10;;;;;;;;;;;36.00;32.30;;;;;;5074082;28;19924;-66
2021/07/11 12:06:36;;;;;;;;;;;35.00;33.30;;;;;;5072674;28;19963;-66
2021/07/11 12:09:03;;;;;;;;;;;34.30;34.40;;;;;;5069917;28;19952;-65
2021/07/11 12:11:28;;;;;;;;;;;33.90;35.50;;;;;;5070186;28;19963;-67
2021/07/11 12:14:03;;;;;;;;;;;33.50;35.80;;;;;;5074750;28;19979;-67
2021/07/11 12:16:28;;;;;;;;;;;33.20;36.40;;;;;;5071874;28;19956;-67
2021/07/11 12:18:54;;;;;;;;;;;32.90;37.40;;;;;;5073852;28;19978;-67
2021/07/11 12:21:29;;;;;;;;;;;32.90;37.70;;;;;;5072041;28;19923;-66
2021/07/11 12:24:17;;;;;;;;;;;32.80;38.20;;;;;;5072420;28;19924;-65
2021/07/11 12:26:47;;;;;;;;;;;32.80;38.80;;;;;;5059768;28;19921;-66
2021/07/11 12:29:16;;;;;;;;;;;32.80;39.20;;;;;;5080748;28;20015;-67
2021/07/11 12:31:42;;;;;;;;;;;32.80;39.20;;;;;;5062817;28;19920;-66
2021/07/11 12:34:11;;;;;;;;;;;32.80;39.20;;;;;;5059194;28;20420;-67
2021/07/11 12:36:39;;;;;;;;;;;32.60;39.60;;;;;;5050520;28;20074;-67
2021/07/11 12:39:15;;;;;;;;;;;32.60;39.90;;;;;;5051569;28;19962;-66
2021/07/11 12:41:41;;;;;;;;;;;32.60;40.40;;;;;;5052527;28;19916;-66
2021/07/11 12:44:06;;;;;;;;;;;32.60;40.70;;;;;;5050457;28;20288;-66
2021/07/11 12:46:33;;;;;;;;;;;32.50;40.70;;;;;;5053318;28;19921;-66
2021/07/11 12:49:17;;;;;;;;;;;32.50;41.40;;;;;;5053370;28;19924;-65
2021/07/11 12:51:48;;;;;;;;;;;32.40;41.10;;;;;;5053278;28;19916;-67
2021/07/11 12:54:19;;;;;;;;;;;31.90;41.20;;;;;;5053318;28;19928;-66
2021/07/11 12:56:53;;;;;;;;;;;31.40;41.80;;;;;;5062844;28;19924;-66
2021/07/11 12:59:25;;;;;;;;;;;31.00;42.40;;;;;;5066697;28;19916;-66
2021/07/11 13:01:59;;;;;;;;;;;30.40;43.00;;;;;;5066566;28;20402;-65
2021/07/11 13:04:24;;;;;;;;;;;29.90;43.60;;;;;;5068400;28;19916;-66
2021/07/11 13:06:59;;;;;;;;;;;29.50;44.50;;;;;;5067526;28;19948;-65
2021/07/11 13:09:24;;;;;;;;;;;29.10;45.20;;;;;;5062459;28;19923;-66
2021/07/11 13:11:50;;;;;;;;;;;28.80;45.60;;;;;;5068581;28;20296;-65
2021/07/11 13:14:15;;;;;;;;;;;28.40;46.00;;;;;;5066757;28;19925;-66
2021/07/11 13:16:41;;;;;;;;;;;28.00;47.20;;;;;;5057101;28;19921;-65
2021/07/11 13:19:06;;;;;;;;;;;27.70;48.70;;;;;;5051980;28;19992;-66
2021/07/11 13:21:32;;;;;;;;;;;27.70;50.00;;;;;;5052904;28;19923;-66
2021/07/11 13:23:57;;;;;;;;;;;27.70;51.10;;;;;;5052668;28;19946;-66
2021/07/11 13:26:23;;;;;;;;;;;27.70;52.00;;;;;;5052607;28;19925;-66
2021/07/11 13:28:48;;;;;;;;;;;27.80;52.80;;;;;;5052414;28;20375;-66
2021/07/11 13:31:14;;;;;;;;;;;28.00;53.30;;;;;;5052353;28;20444;-65
2021/07/11 13:33:40;;;;;;;;;;;28.10;53.60;;;;;;5052647;28;20301;-65
2021/07/11 13:36:05;;;;;;;;;;;28.30;54.10;;;;;;5052636;28;19917;-66
2021/07/11 13:38:31;;;;;;;;;;;28.40;54.00;;;;;;5051881;28;20396;-66
2021/07/11 13:40:57;;;;;;;;;;;28.40;54.50;;;;;;5052244;28;19924;-66
2021/07/11 13:43:22;;;;;;;;;;;28.50;55.00;;;;;;5052501;28;20460;-67
2021/07/11 13:45:48;;;;;;;;;;;28.50;54.40;;;;;;5050729;28;19917;-66
2021/07/11 13:48:13;;;;;;;;;;;28.30;54.20;;;;;;5051162;28;20296;-65
2021/07/11 13:50:39;;;;;;;;;;;28.10;54.60;;;;;;5057634;28;19956;-66
2021/07/11 13:53:05;;;;;;;;;;;28.00;54.80;;;;;;5070536;28;19924;-65
2021/07/11 13:55:31;;;;;;;;;;;28.00;55.10;;;;;;5072113;28;19920;-66
2021/07/11 13:57:56;;;;;;;;;;;28.10;55.70;;;;;;5069127;28;20327;-66
2021/07/11 14:00:22;;;;;;;;;;;28.20;55.00;;;;;;5071687;28;20079;-66
2021/07/11 14:02:48;;;;;;;;;;;28.20;55.10;;;;;;5071975;28;20295;-66
2021/07/11 14:05:14;;;;;;;;;;;28.20;55.30;;;;;;5072008;28;19929;-66
2021/07/11 14:07:40;;;;;;;;;;;28.30;55.10;;;;;;5071731;28;19924;-66
2021/07/11 14:10:07;;;;;;;;;;;28.30;55.00;;;;;;5068628;28;19923;-66
2021/07/11 14:12:33;;;;;;;;;;;28.40;54.70;;;;;;5068663;28;19924;-65
2021/07/11 14:15:01;;;;;;;;;;;28.50;54.40;;;;;;5071436;28;19916;-66